Huvudsida
METAR-TAF:

METAR-TAF

Flygplatser :

Mendoza Aerodrome

Mendoza, Argentina

latitud: 32-50S, longitud: 068-47W, höjd: 705 m

Aktuellt väderrapport

Denna rapport gjordes för 35 minuter sedan, klockan 09:00 UTC
Stilla vind
Temperatur 24°C
Fuktighet 78%
Tryck 1001 hPa
Sikt 10 km eller mer
åska i närheten

METAR: SAME 170900Z 00000KT 9999 VCTS FEW040FEW045CB 24/20 Q1001

Tid: 06:35 (09:35 UTC)

Väderprognos

Denna rapport gjordes för 4 timmar och 35 minuter sedan, klockan 05:00 UTC
Prognos gäller från 17 kl. 06 UTC till 18 kl. 06 UTC
Vind 10 kt från sydost
Sikt: 6000 m
Brutna moln på en höjd av 2500 ft
Få moln på en höjd av 4000 ft, Cumulonimbus.
Spridda moln på en höjd av 7000 ft
åska, regn
Blir
från 17 kl. 15 UTC till 17 kl. 17 UTC
Vind 10 kt från syd/sydost
Sikt 10 km eller mer
Spridda moln på en höjd av 3500 ft
Spridda moln på en höjd av 8000 ft

TAF: SAME 170500Z 1706/1806 14010KT 6000 TSRA BKN025 FEW040CB SCT070 TX29/1720Z TN21/1710Z BECMG 1715/1717 16010KT 9999 NSW SCT035 SCT080

Aktuella väderrapporter och prognoser från 4000 flygplatser (METAR- och TAF-rapporter).

De tillgängliga stationerna syns som gula och röda prickar på kartan.

För musen över prickarna för att se namnen på stationerna.

Klicka sedan för att få väderrapporter och prognoser.

För att ändra kartan: Klicka på de gröna knapparna med ett svart kors på för att zooma in; den gröna knappen med ett streck på för att zooma ut; eller på de gröna pilarna för angränsande kartor.


METAR-TAF: